Time;durP1;ratioP1;P1;durP2;ratioP2;P2;SDS_P1;SDS_P2;PMS_P1;PMS_P2;Temp;Humidity;BMP_temperature;BMP_pressure;BME280_temperature;BME280_humidity;BME280_pressure;Samples;Min_cycle;Max_cycle;Signal;HPM_P1;HPM_P2
2023/04/05 00:04:07;;;;;;;31.40;12.57;;;;;;;;;;12721662;19;2005136;-67
2023/04/05 00:08:54;;;;;;;21.80;10.80;;;;;;;;;;12823198;19;20468;-67
2023/04/05 00:13:29;;;;;;;27.70;11.65;;;;;;;;;;12818247;19;20414;-67
2023/04/05 00:18:38;;;;;;;25.23;11.48;;;;;;;;;;12824546;19;20469;-67
2023/04/05 00:29:07;;;;;;;29.35;9.90;;;;;;;;;;12816601;19;20010;-67
2023/04/05 00:40:11;;;;;;;27.13;10.88;;;;;;;;;;12717154;19;2005037;-67
2023/04/05 00:44:57;;;;;;;25.25;10.93;;;;;;;;;;12818267;19;20311;-67
2023/04/05 00:56:46;;;;;;;27.92;10.57;;;;;;;;;;12818935;19;20422;-67
2023/04/05 01:01:36;;;;;;;31.02;11.43;;;;;;;;;;12811853;19;20338;-67
2023/04/05 01:18:36;;;;;;;26.45;10.70;;;;;;;;;;12810234;19;20848;-67
2023/04/05 01:24:01;;;;;;;29.60;11.27;;;;;;;;;;12814492;19;21190;-67
2023/04/05 01:35:37;;;;;;;33.10;14.48;;;;;;;;;;12708549;19;2004773;-67
2023/04/05 01:40:07;;;;;;;31.83;13.10;;;;;;;;;;12808984;19;20438;-67
2023/04/05 01:56:35;;;;;;;25.40;11.60;;;;;;;;;;12817964;19;20457;-67
2023/04/05 02:01:00;;;;;;;25.02;10.88;;;;;;;;;;12818468;19;20334;-66
2023/04/05 02:06:02;;;;;;;33.17;13.13;;;;;;;;;;12818324;19;20376;-67
2023/04/05 02:11:30;;;;;;;29.15;12.40;;;;;;;;;;12817072;19;20264;-67
2023/04/05 02:15:59;;;;;;;28.05;13.10;;;;;;;;;;12816308;19;20494;-68
2023/04/05 02:26:59;;;;;;;32.03;13.60;;;;;;;;;;12826636;19;20995;-67
2023/04/05 02:31:47;;;;;;;32.75;12.88;;;;;;;;;;12826785;19;20062;-67
2023/04/05 02:36:41;;;;;;;28.08;12.45;;;;;;;;;;12824472;19;20469;-67
2023/04/05 02:41:37;;;;;;;29.92;12.55;;;;;;;;;;12824650;19;20372;-67
2023/04/05 02:46:32;;;;;;;30.75;12.73;;;;;;;;;;12827483;19;20028;-67
2023/04/05 02:50:51;;;;;;;31.70;12.43;;;;;;;;;;12824069;19;20137;-66
2023/04/05 03:01:53;;;;;;;25.55;11.38;;;;;;;;;;12816947;19;20453;-67
2023/04/05 03:06:53;;;;;;;31.50;11.93;;;;;;;;;;12817336;19;21193;-66
2023/04/05 03:11:39;;;;;;;29.58;12.13;;;;;;;;;;12825008;19;20924;-67
2023/04/05 03:16:08;;;;;;;27.42;11.00;;;;;;;;;;12825003;19;20426;-67
2023/04/05 03:26:03;;;;;;;27.20;10.85;;;;;;;;;;12823622;19;20358;-67
2023/04/05 03:30:59;;;;;;;29.83;12.43;;;;;;;;;;12822122;19;20319;-66
2023/04/05 03:35:31;;;;;;;30.00;13.05;;;;;;;;;;12825392;19;20010;-67
2023/04/05 03:46:51;;;;;;;32.97;14.43;;;;;;;;;;12712319;19;2005108;-66
2023/04/05 03:51:30;;;;;;;33.95;13.10;;;;;;;;;;12816060;19;20330;-67
2023/04/05 03:56:46;;;;;;;27.73;12.50;;;;;;;;;;12822760;19;20011;-67
2023/04/05 04:02:06;;;;;;;30.15;11.68;;;;;;;;;;12716796;19;2005199;-67
2023/04/05 04:07:08;;;;;;;25.15;12.05;;;;;;;;;;12822838;19;20482;-68
2023/04/05 04:11:52;;;;;;;33.10;12.80;;;;;;;;;;12823946;19;20469;-67
2023/04/05 04:16:34;;;;;;;29.77;12.93;;;;;;;;;;12800326;19;20422;-67
2023/04/05 04:21:09;;;;;;;37.20;17.65;;;;;;;;;;12822377;19;20523;-67
2023/04/05 04:36:33;;;;;;;43.17;16.05;;;;;;;;;;12820989;19;20322;-67
2023/04/05 04:41:37;;;;;;;37.92;16.75;;;;;;;;;;12820658;19;20727;-67
2023/04/05 04:46:41;;;;;;;35.25;14.77;;;;;;;;;;12805653;19;20104;-67
2023/04/05 04:51:12;;;;;;;71.57;23.40;;;;;;;;;;12813581;19;20782;-67
2023/04/05 05:02:30;;;;;;;41.90;15.00;;;;;;;;;;12711143;19;2005222;-67
2023/04/05 05:07:41;;;;;;;50.72;17.25;;;;;;;;;;12811661;19;20643;-68
2023/04/05 05:18:41;;;;;;;39.97;17.10;;;;;;;;;;12811455;19;20303;-67
2023/04/05 05:23:10;;;;;;;37.53;15.43;;;;;;;;;;12809462;19;20435;-67
2023/04/05 05:34:43;;;;;;;50.38;18.80;;;;;;;;;;12706772;19;2005533;-67
2023/04/05 05:39:35;;;;;;;44.75;18.60;;;;;;;;;;12802291;19;20756;-67
2023/04/05 05:44:10;;;;;;;67.38;29.10;;;;;;;;;;12804552;19;20446;-67
2023/04/05 05:54:23;;;;;;;70.43;30.05;;;;;;;;;;12794769;19;20304;-67
2023/04/05 06:04:30;;;;;;;50.08;20.30;;;;;;;;;;12805439;19;20457;-68
2023/04/05 06:09:46;;;;;;;35.42;16.08;;;;;;;;;;12809901;19;20441;-68
2023/04/05 06:15:08;;;;;;;31.98;14.45;;;;;;;;;;12806932;19;20323;-67
2023/04/05 06:19:44;;;;;;;33.50;16.33;;;;;;;;;;12818365;19;20006;-67
2023/04/05 06:25:20;;;;;;;35.63;14.93;;;;;;;;;;12829662;19;20430;-68
2023/04/05 06:30:40;;;;;;;31.52;14.93;;;;;;;;;;12819884;19;20430;-67
2023/04/05 06:35:13;;;;;;;24.35;11.70;;;;;;;;;;12819843;19;20490;-67
2023/04/05 06:51:09;;;;;;;32.72;14.10;;;;;;;;;;12823393;19;20426;-68
2023/04/05 07:08:11;;;;;;;24.30;11.45;;;;;;;;;;12826651;19;20575;-67
2023/04/05 07:12:50;;;;;;;25.05;12.43;;;;;;;;;;12826662;19;20318;-67
2023/04/05 07:17:28;;;;;;;24.33;10.60;;;;;;;;;;12826651;19;20370;-67
2023/04/05 07:22:24;;;;;;;23.65;11.02;;;;;;;;;;12802380;19;20607;-67
2023/04/05 07:27:21;;;;;;;25.67;10.63;;;;;;;;;;12802642;19;20018;-67
2023/04/05 07:32:10;;;;;;;18.55;9.90;;;;;;;;;;12788427;19;20423;-67
2023/04/05 07:37:05;;;;;;;21.55;10.30;;;;;;;;;;12790738;19;20429;-67
2023/04/05 07:42:00;;;;;;;23.98;9.27;;;;;;;;;;12790117;19;20007;-67
2023/04/05 07:46:52;;;;;;;19.92;10.73;;;;;;;;;;12792769;19;20319;-68
2023/04/05 07:52:05;;;;;;;28.48;10.52;;;;;;;;;;12800442;19;20006;-67
2023/04/05 07:56:54;;;;;;;22.65;10.88;;;;;;;;;;12801889;19;20311;-68
2023/04/05 08:01:43;;;;;;;29.05;10.88;;;;;;;;;;12802134;19;20292;-68
2023/04/05 08:06:34;;;;;;;21.38;9.57;;;;;;;;;;12802670;19;20010;-68
2023/04/05 08:11:47;;;;;;;25.45;11.85;;;;;;;;;;12801660;19;20473;-67
2023/04/05 08:16:51;;;;;;;21.60;9.20;;;;;;;;;;12799998;19;20011;-68
2023/04/05 08:21:31;;;;;;;12.27;6.22;;;;;;;;;;12803610;19;20019;-68
2023/04/05 08:26:27;;;;;;;9.60;4.28;;;;;;;;;;12801345;19;20304;-68
2023/04/05 08:31:19;;;;;;;13.82;6.32;;;;;;;;;;12797982;19;20456;-67
2023/04/05 08:36:36;;;;;;;13.00;6.60;;;;;;;;;;12804034;19;20363;-67
2023/04/05 08:41:36;;;;;;;12.15;4.80;;;;;;;;;;12819332;19;20010;-67
2023/04/05 08:46:05;;;;;;;10.13;4.97;;;;;;;;;;12820701;19;20525;-67
2023/04/05 08:57:32;;;;;;;11.48;5.35;;;;;;;;;;12818811;19;20981;-67
2023/04/05 09:02:44;;;;;;;12.52;5.28;;;;;;;;;;12813248;19;20318;-67
2023/04/05 09:07:48;;;;;;;9.15;4.20;;;;;;;;;;12821618;19;20339;-68
2023/04/05 09:23:38;;;;;;;11.23;4.85;;;;;;;;;;12815196;19;20434;-66
2023/04/05 09:34:52;;;;;;;9.43;5.20;;;;;;;;;;12813059;19;20323;-66
2023/04/05 09:39:33;;;;;;;8.55;4.68;;;;;;;;;;12809717;19;22240;-66
2023/04/05 09:44:31;;;;;;;10.75;4.97;;;;;;;;;;12818151;19;20010;-66
2023/04/05 09:49:47;;;;;;;11.75;6.32;;;;;;;;;;12815925;19;20714;-66
2023/04/05 09:54:51;;;;;;;9.35;5.10;;;;;;;;;;12816870;19;20002;-67
2023/04/05 10:05:54;;;;;;;10.27;5.13;;;;;;;;;;12816585;19;20427;-66
2023/04/05 10:11:03;;;;;;;7.90;4.63;;;;;;;;;;12815406;19;20007;-66
2023/04/05 10:22:50;;;;;;;12.25;4.75;;;;;;;;;;12705548;19;2005294;-67
2023/04/05 10:28:04;;;;;;;6.53;3.72;;;;;;;;;;12811427;19;20433;-67
2023/04/05 10:39:56;;;;;;;11.85;3.97;;;;;;;;;;12709426;19;2004834;-67
2023/04/05 10:44:32;;;;;;;8.38;4.00;;;;;;;;;;12819714;19;20375;-67
2023/04/05 10:49:33;;;;;;;11.02;3.33;;;;;;;;;;12820303;19;20027;-67
2023/04/05 11:00:30;;;;;;;5.73;3.40;;;;;;;;;;12818434;19;20330;-67
2023/04/05 11:05:36;;;;;;;8.80;3.10;;;;;;;;;;12818005;19;20343;-67
2023/04/05 11:16:12;;;;;;;6.30;3.20;;;;;;;;;;12721749;19;2006288;-67
2023/04/05 11:21:13;;;;;;;6.22;3.63;;;;;;;;;;12821675;19;20115;-67
2023/04/05 11:27:02;;;;;;;6.50;4.07;;;;;;;;;;12827064;19;20330;-67
2023/04/05 11:33:07;;;;;;;8.50;3.25;;;;;;;;;;12724009;19;2004965;-67
2023/04/05 11:38:30;;;;;;;4.00;2.40;;;;;;;;;;12817988;19;20310;-67
2023/04/05 11:48:43;;;;;;;6.75;2.80;;;;;;;;;;12822350;19;20489;-67
2023/04/05 11:53:55;;;;;;;8.65;3.22;;;;;;;;;;12815528;19;20691;-67
2023/04/05 11:58:29;;;;;;;12.95;3.67;;;;;;;;;;12818143;19;20427;-67
2023/04/05 12:08:49;;;;;;;6.55;2.75;;;;;;;;;;12813790;19;20015;-67
2023/04/05 12:13:45;;;;;;;5.82;2.67;;;;;;;;;;12813868;19;20303;-67
2023/04/05 12:24:51;;;;;;;6.85;2.65;;;;;;;;;;12812295;19;20092;-67
2023/04/05 12:29:35;;;;;;;5.82;2.42;;;;;;;;;;12814037;19;20410;-67
2023/04/05 12:33:58;;;;;;;5.68;2.63;;;;;;;;;;12819972;19;20319;-67
2023/04/05 12:38:45;;;;;;;7.03;2.85;;;;;;;;;;12821251;19;20357;-67
2023/04/05 12:43:44;;;;;;;4.85;2.58;;;;;;;;;;12819101;19;20440;-67
2023/04/05 12:48:29;;;;;;;4.05;2.50;;;;;;;;;;12816965;19;20492;-67
2023/04/05 12:53:49;;;;;;;7.35;3.22;;;;;;;;;;12821140;19;20379;-67
2023/04/05 12:59:42;;;;;;;5.45;2.35;;;;;;;;;;12714017;19;2005013;-67
2023/04/05 13:04:13;;;;;;;3.42;1.98;;;;;;;;;;12816022;19;20430;-67
2023/04/05 13:15:30;;;;;;;5.45;3.00;;;;;;;;;;12710403;19;2006311;-67
2023/04/05 13:20:34;;;;;;;10.27;6.40;;;;;;;;;;12811162;19;20440;-67
2023/04/05 13:24:56;;;;;;;12.80;7.30;;;;;;;;;;12812156;19;20399;-67
2023/04/05 13:30:10;;;;;;;4.75;2.33;;;;;;;;;;12810547;19;20489;-67
2023/04/05 13:35:38;;;;;;;5.03;3.08;;;;;;;;;;12810409;19;20603;-67
2023/04/05 13:40:35;;;;;;;5.65;2.92;;;;;;;;;;12810666;19;20339;-67
2023/04/05 13:44:56;;;;;;;5.40;2.40;;;;;;;;;;12812047;19;20617;-67
2023/04/05 13:50:45;;;;;;;28.92;7.00;;;;;;;;;;12807623;19;20329;-67
2023/04/05 13:55:42;;;;;;;3.45;2.13;;;;;;;;;;12808768;19;20472;-67
2023/04/05 14:00:00;;;;;;;5.65;2.90;;;;;;;;;;12809029;19;20387;-67
2023/04/05 14:04:55;;;;;;;5.60;2.42;;;;;;;;;;12811396;19;20426;-67
2023/04/05 14:10:04;;;;;;;12.77;5.80;;;;;;;;;;12808827;19;20399;-67
2023/04/05 14:14:52;;;;;;;9.37;5.80;;;;;;;;;;12816718;19;20464;-66
2023/04/05 14:26:40;;;;;;;5.72;2.53;;;;;;;;;;12819454;19;20436;-67
2023/04/05 14:31:05;;;;;;;3.03;2.08;;;;;;;;;;12818774;19;20435;-67
2023/04/05 14:42:58;;;;;;;18.85;5.53;;;;;;;;;;12823490;19;20537;-67
2023/04/05 14:47:51;;;;;;;8.18;2.90;;;;;;;;;;12821216;19;20324;-67
2023/04/05 14:52:09;;;;;;;7.53;2.67;;;;;;;;;;12827418;19;20487;-67
2023/04/05 15:03:10;;;;;;;4.32;2.47;;;;;;;;;;12725661;19;2005129;-67
2023/04/05 15:07:58;;;;;;;4.20;2.08;;;;;;;;;;12825107;19;20481;-67
2023/04/05 15:12:31;;;;;;;4.53;2.33;;;;;;;;;;12826579;19;20382;-67
2023/04/05 15:17:07;;;;;;;5.35;3.13;;;;;;;;;;12824738;19;20738;-67
2023/04/05 15:22:13;;;;;;;6.10;3.22;;;;;;;;;;12822469;19;20474;-67
2023/04/05 15:27:01;;;;;;;5.90;2.70;;;;;;;;;;12822101;19;20074;-67
2023/04/05 15:31:51;;;;;;;5.22;2.80;;;;;;;;;;12824727;19;20456;-67
2023/04/05 15:36:35;;;;;;;6.22;2.58;;;;;;;;;;12823564;19;20410;-66
2023/04/05 15:41:29;;;;;;;14.57;4.88;;;;;;;;;;12824591;19;20457;-67
2023/04/05 15:52:47;;;;;;;4.95;2.38;;;;;;;;;;12722104;19;2005097;-67
2023/04/05 15:57:33;;;;;;;6.68;2.50;;;;;;;;;;12821835;19;20326;-67
2023/04/05 16:08:51;;;;;;;10.27;3.58;;;;;;;;;;12714961;19;2005198;-68
2023/04/05 16:14:36;;;;;;;4.75;3.50;;;;;;;;;;12814830;19;20011;-67
2023/04/05 16:25:26;;;;;;;19.48;9.02;;;;;;;;;;12711186;19;2004959;-68
2023/04/05 16:30:00;;;;;;;21.63;9.38;;;;;;;;;;12813713;19;20434;-68
2023/04/05 16:34:50;;;;;;;19.55;9.88;;;;;;;;;;12813246;19;20477;-68
2023/04/05 16:45:43;;;;;;;16.48;6.38;;;;;;;;;;12809556;19;20364;-67
2023/04/05 16:50:45;;;;;;;18.05;8.80;;;;;;;;;;12811161;19;20311;-67
2023/04/05 17:01:04;;;;;;;29.00;12.60;;;;;;;;;;12811256;19;20105;-67
2023/04/05 17:06:06;;;;;;;35.85;15.88;;;;;;;;;;12809955;19;20045;-67
2023/04/05 17:11:05;;;;;;;45.92;16.25;;;;;;;;;;12810019;19;20360;-68
2023/04/05 17:21:27;;;;;;;32.03;11.15;;;;;;;;;;12808404;19;20021;-69
2023/04/05 17:26:11;;;;;;;58.67;23.40;;;;;;;;;;12810028;19;20039;-69
2023/04/05 17:30:50;;;;;;;17.38;9.73;;;;;;;;;;12810220;19;20319;-69
2023/04/05 17:41:39;;;;;;;42.65;15.38;;;;;;;;;;12816708;19;20474;-69
2023/04/05 17:46:35;;;;;;;28.25;9.77;;;;;;;;;;12816128;19;20385;-68
2023/04/05 17:58:06;;;;;;;21.88;9.23;;;;;;;;;;12822195;19;20303;-69
2023/04/05 18:03:27;;;;;;;23.38;8.90;;;;;;;;;;12819581;19;20431;-67
2023/04/05 18:07:53;;;;;;;17.58;8.43;;;;;;;;;;12826761;19;20430;-68
2023/04/05 18:12:56;;;;;;;18.63;8.02;;;;;;;;;;12827177;19;20980;-67
2023/04/05 18:18:04;;;;;;;41.08;13.98;;;;;;;;;;12826073;19;20493;-68
2023/04/05 18:23:31;;;;;;;44.20;16.60;;;;;;;;;;12823300;19;20015;-68
2023/04/05 18:28:34;;;;;;;33.60;14.43;;;;;;;;;;12828266;19;20446;-68
2023/04/05 18:33:54;;;;;;;41.08;15.57;;;;;;;;;;12825505;19;20388;-68
2023/04/05 18:38:43;;;;;;;53.20;17.02;;;;;;;;;;12824827;19;20050;-68
2023/04/05 18:49:33;;;;;;;19.60;8.63;;;;;;;;;;12820436;19;20493;-67
2023/04/05 18:53:59;;;;;;;17.55;8.13;;;;;;;;;;12825679;19;20999;-67
2023/04/05 18:59:34;;;;;;;49.70;22.65;;;;;;;;;;12827407;19;20306;-68
2023/04/05 19:10:36;;;;;;;12.73;5.85;;;;;;;;;;12817774;19;20367;-68
2023/04/05 19:21:07;;;;;;;16.30;7.07;;;;;;;;;;12815183;19;20430;-67
2023/04/05 19:25:49;;;;;;;17.95;6.75;;;;;;;;;;12817175;19;20323;-68
2023/04/05 19:30:31;;;;;;;21.83;8.80;;;;;;;;;;12818849;19;20319;-68
2023/04/05 19:36:08;;;;;;;16.85;7.00;;;;;;;;;;12824751;19;20607;-68
2023/04/05 19:41:22;;;;;;;21.42;12.02;;;;;;;;;;12713482;19;2006219;-68
2023/04/05 19:46:01;;;;;;;34.17;15.82;;;;;;;;;;12823637;19;20313;-68
2023/04/05 19:50:33;;;;;;;31.33;17.05;;;;;;;;;;12823766;19;20015;-67
2023/04/05 19:55:36;;;;;;;35.10;13.63;;;;;;;;;;12814564;19;20050;-68
2023/04/05 20:00:43;;;;;;;35.42;13.43;;;;;;;;;;12819041;19;20378;-68
2023/04/05 20:06:32;;;;;;;82.22;26.35;;;;;;;;;;12814090;19;20449;-68
2023/04/05 20:11:33;;;;;;;57.40;18.08;;;;;;;;;;12812093;19;20468;-68
2023/04/05 20:22:10;;;;;;;30.67;11.38;;;;;;;;;;12812644;19;20435;-68
2023/04/05 20:26:48;;;;;;;19.95;8.88;;;;;;;;;;12814643;19;20463;-68
2023/04/05 20:37:34;;;;;;;21.40;10.07;;;;;;;;;;12819663;19;20411;-68
2023/04/05 20:42:33;;;;;;;38.97;15.70;;;;;;;;;;12812719;19;20006;-68
2023/04/05 20:47:07;;;;;;;51.67;18.15;;;;;;;;;;12812297;19;20554;-68
2023/04/05 20:52:40;;;;;;;61.13;20.00;;;;;;;;;;12820073;19;20382;-68
2023/04/05 21:03:30;;;;;;;19.17;10.27;;;;;;;;;;12811887;19;20019;-67
2023/04/05 21:15:33;;;;;;;32.33;11.60;;;;;;;;;;12711413;19;2004843;-68
2023/04/05 21:20:28;;;;;;;49.30;15.85;;;;;;;;;;12810282;19;20076;-67
2023/04/05 21:24:53;;;;;;;40.03;14.45;;;;;;;;;;12809443;19;20011;-67
2023/04/05 21:40:36;;;;;;;39.17;13.20;;;;;;;;;;12810317;19;20435;-68
2023/04/05 21:45:30;;;;;;;20.55;7.78;;;;;;;;;;12810677;19;20351;-68
2023/04/05 21:55:53;;;;;;;35.90;13.18;;;;;;;;;;12809813;19;20452;-67
2023/04/05 22:00:30;;;;;;;21.10;10.17;;;;;;;;;;12815232;19;20022;-67
2023/04/05 22:05:47;;;;;;;25.85;11.95;;;;;;;;;;12818486;19;20513;-68
2023/04/05 22:10:46;;;;;;;24.05;11.10;;;;;;;;;;12813777;19;20327;-67
2023/04/05 22:15:42;;;;;;;24.60;9.50;;;;;;;;;;12807996;19;20463;-68
2023/04/05 22:21:02;;;;;;;24.55;11.25;;;;;;;;;;12809740;19;20027;-68
2023/04/05 22:31:01;;;;;;;16.90;7.85;;;;;;;;;;12815498;19;20016;-68
2023/04/05 22:42:28;;;;;;;35.92;12.02;;;;;;;;;;12717995;19;2005123;-68
2023/04/05 22:47:05;;;;;;;20.25;8.40;;;;;;;;;;12819767;19;20434;-67
2023/04/05 23:03:30;;;;;;;16.02;7.15;;;;;;;;;;12826479;19;20628;-68
2023/04/05 23:14:10;;;;;;;23.23;8.32;;;;;;;;;;12717564;19;2005289;-67
2023/04/05 23:18:55;;;;;;;21.25;8.13;;;;;;;;;;12818596;19;20392;-67
2023/04/05 23:29:12;;;;;;;20.93;8.33;;;;;;;;;;12818565;19;20342;-68
2023/04/05 23:34:01;;;;;;;18.48;7.63;;;;;;;;;;12816587;19;20361;-68
2023/04/05 23:38:32;;;;;;;18.13;7.30;;;;;;;;;;12817703;19;20434;-68
2023/04/05 23:48:57;;;;;;;16.35;6.68;;;;;;;;;;12721602;19;2004733;-67
2023/04/05 23:53:58;;;;;;;25.02;9.60;;;;;;;;;;12818989;19;20970;-68
